Time;durP1;ratioP1;P1;durP2;ratioP2;P2;SDS_P1;SDS_P2;PMS_P1;PMS_P2;Temp;Humidity;BMP_temperature;BMP_pressure;BME280_temperature;BME280_humidity;BME280_pressure;Samples;Min_cycle;Max_cycle;Signal;HPM_P1;HPM_P2
2022/04/24 00:00:29;;;;;;;9.57;5.72;;;;;;;;;;4918790;29;20333;-91
2022/04/24 00:02:55;;;;;;;8.55;6.00;;;;;;;;;;4919018;29;20495;-92
2022/04/24 00:05:20;;;;;;;11.32;6.28;;;;;;;;;;4922357;29;20051;-92
2022/04/24 00:07:45;;;;;;;10.05;6.30;;;;;;;;;;4942195;29;20027;-91
2022/04/24 00:10:11;;;;;;;9.57;6.40;;;;;;;;;;4936107;29;20016;-91
2022/04/24 00:12:36;;;;;;;9.13;5.88;;;;;;;;;;4936134;29;20019;-92
2022/04/24 00:15:01;;;;;;;8.88;6.43;;;;;;;;;;4932620;29;20391;-92
2022/04/24 00:17:26;;;;;;;12.30;6.65;;;;;;;;;;4938271;29;20026;-91
2022/04/24 00:19:51;;;;;;;9.25;5.93;;;;;;;;;;4938755;29;20026;-90
2022/04/24 00:22:17;;;;;;;9.77;6.47;;;;;;;;;;4937483;29;20372;-91
2022/04/24 00:24:42;;;;;;;8.45;5.85;;;;;;;;;;4937418;29;20274;-91
2022/04/24 00:27:08;;;;;;;12.23;6.40;;;;;;;;;;4937868;29;20015;-92
2022/04/24 00:29:33;;;;;;;10.98;6.47;;;;;;;;;;4923125;29;20399;-91
2022/04/24 00:31:58;;;;;;;10.20;6.60;;;;;;;;;;4920481;29;20016;-90
2022/04/24 00:34:23;;;;;;;9.43;6.47;;;;;;;;;;4928905;29;20391;-90
2022/04/24 00:36:49;;;;;;;10.88;6.60;;;;;;;;;;4936974;29;20471;-91
2022/04/24 00:39:14;;;;;;;11.18;7.20;;;;;;;;;;4935687;29;20031;-92
2022/04/24 00:41:46;;;;;;;11.10;6.97;;;;;;;;;;4923103;29;20027;-92
2022/04/24 00:44:11;;;;;;;8.38;6.43;;;;;;;;;;4935351;29;20023;-90
2022/04/24 00:46:40;;;;;;;10.73;7.07;;;;;;;;;;4935416;29;20030;-91
2022/04/24 00:49:07;;;;;;;11.20;6.03;;;;;;;;;;4932413;29;20027;-91
2022/04/24 00:51:32;;;;;;;10.88;6.82;;;;;;;;;;4918232;29;20012;-92
2022/04/24 00:53:58;;;;;;;12.10;7.20;;;;;;;;;;4932614;29;20060;-91
2022/04/24 00:56:30;;;;;;;9.82;6.53;;;;;;;;;;4935003;29;20050;-91
2022/04/24 00:58:55;;;;;;;10.40;6.47;;;;;;;;;;4935148;29;20026;-92
2022/04/24 01:01:20;;;;;;;11.05;6.82;;;;;;;;;;4935304;29;20024;-90
2022/04/24 01:03:46;;;;;;;9.43;6.32;;;;;;;;;;4935052;29;20024;-91
2022/04/24 01:06:12;;;;;;;9.93;7.07;;;;;;;;;;4935430;29;20019;-90
2022/04/24 01:08:37;;;;;;;10.13;6.55;;;;;;;;;;4917743;29;20062;-92
2022/04/24 01:11:02;;;;;;;12.10;7.10;;;;;;;;;;4919449;29;20031;-91
2022/04/24 01:13:28;;;;;;;11.70;7.35;;;;;;;;;;4923911;29;20044;-91
2022/04/24 01:15:56;;;;;;;12.75;7.60;;;;;;;;;;4935478;29;20018;-91
2022/04/24 01:18:21;;;;;;;13.32;7.35;;;;;;;;;;4935470;29;20020;-91
2022/04/24 01:20:47;;;;;;;10.30;6.97;;;;;;;;;;4935538;29;20546;-92
2022/04/24 01:23:13;;;;;;;11.35;7.45;;;;;;;;;;4935450;29;20450;-92
2022/04/24 01:25:41;;;;;;;10.88;7.43;;;;;;;;;;4921086;29;20019;-90
2022/04/24 01:28:08;;;;;;;15.68;8.50;;;;;;;;;;4921647;29;20038;-90
2022/04/24 01:30:33;;;;;;;11.02;7.38;;;;;;;;;;4938111;29;20093;-91
2022/04/24 01:32:58;;;;;;;11.93;7.55;;;;;;;;;;4919903;29;20016;-92
2022/04/24 01:35:24;;;;;;;11.15;7.53;;;;;;;;;;4922250;29;20016;-91
2022/04/24 01:37:49;;;;;;;12.90;8.23;;;;;;;;;;4918168;29;20074;-91
2022/04/24 01:40:14;;;;;;;12.88;7.95;;;;;;;;;;4921924;29;20030;-92
2022/04/24 01:42:40;;;;;;;9.60;7.75;;;;;;;;;;4944615;29;20032;-88
2022/04/24 01:45:05;;;;;;;14.13;8.05;;;;;;;;;;4923528;29;20058;-89
2022/04/24 01:47:30;;;;;;;14.25;8.88;;;;;;;;;;4945472;29;20035;-91
2022/04/24 01:49:55;;;;;;;12.57;8.52;;;;;;;;;;4949718;29;20020;-87
2022/04/24 01:52:21;;;;;;;12.23;8.05;;;;;;;;;;4953796;29;20015;-87
2022/04/24 01:54:46;;;;;;;12.43;8.18;;;;;;;;;;4944929;29;20032;-88
2022/04/24 01:57:11;;;;;;;11.00;8.18;;;;;;;;;;4938565;29;20031;-92
2022/04/24 01:59:36;;;;;;;12.27;8.05;;;;;;;;;;4928441;29;20037;-86
2022/04/24 02:02:02;;;;;;;13.75;7.53;;;;;;;;;;4948643;29;20022;-89
2022/04/24 02:04:27;;;;;;;15.25;8.32;;;;;;;;;;4954946;28;20531;-84
2022/04/24 02:06:52;;;;;;;14.27;8.18;;;;;;;;;;4937152;29;20020;-86
2022/04/24 02:09:18;;;;;;;11.95;8.18;;;;;;;;;;4951146;29;20043;-85
2022/04/24 02:11:43;;;;;;;11.90;7.63;;;;;;;;;;4937291;29;20515;-83
2022/04/24 02:14:08;;;;;;;11.98;7.55;;;;;;;;;;4950917;29;20087;-87
2022/04/24 02:16:34;;;;;;;9.90;7.15;;;;;;;;;;4940617;29;20448;-86
2022/04/24 02:18:59;;;;;;;12.52;7.60;;;;;;;;;;4932951;29;20020;-82
2022/04/24 02:21:25;;;;;;;9.32;6.72;;;;;;;;;;4939482;29;20020;-83
2022/04/24 02:23:51;;;;;;;11.27;7.95;;;;;;;;;;4941393;29;20027;-84
2022/04/24 02:26:16;;;;;;;14.38;8.32;;;;;;;;;;4955553;29;20020;-86
2022/04/24 02:28:42;;;;;;;11.43;8.00;;;;;;;;;;4956720;29;20024;-82
2022/04/24 02:31:07;;;;;;;10.77;7.97;;;;;;;;;;4952080;29;20043;-85
2022/04/24 02:33:32;;;;;;;12.88;7.68;;;;;;;;;;4940626;29;20007;-88
2022/04/24 02:35:57;;;;;;;12.27;8.35;;;;;;;;;;4938848;29;20060;-88
2022/04/24 02:38:22;;;;;;;11.20;7.32;;;;;;;;;;4939148;29;20395;-89
2022/04/24 02:40:48;;;;;;;12.30;7.88;;;;;;;;;;4938985;29;20482;-89
2022/04/24 02:43:13;;;;;;;11.20;7.05;;;;;;;;;;4937459;29;20023;-89
2022/04/24 02:45:40;;;;;;;12.70;8.02;;;;;;;;;;4939513;29;20027;-88
2022/04/24 02:48:06;;;;;;;12.05;7.82;;;;;;;;;;4930062;29;20188;-89
2022/04/24 02:50:31;;;;;;;13.35;8.02;;;;;;;;;;4925065;29;20500;-88
2022/04/24 02:52:56;;;;;;;12.32;8.57;;;;;;;;;;4944594;29;20016;-87
2022/04/24 02:55:22;;;;;;;12.75;8.50;;;;;;;;;;4952736;23;20039;-86
2022/04/24 02:57:48;;;;;;;11.35;8.20;;;;;;;;;;4920430;29;20020;-87
2022/04/24 03:00:19;;;;;;;14.13;9.23;;;;;;;;;;4938022;29;20027;-85
2022/04/24 03:02:45;;;;;;;16.77;10.38;;;;;;;;;;4920793;29;20026;-88
2022/04/24 03:05:11;;;;;;;13.52;8.80;;;;;;;;;;4937014;29;20098;-87
2022/04/24 03:07:36;;;;;;;11.13;8.00;;;;;;;;;;4937240;29;20024;-85
2022/04/24 03:10:02;;;;;;;13.73;8.63;;;;;;;;;;4927017;29;20019;-85
2022/04/24 03:12:28;;;;;;;12.02;7.97;;;;;;;;;;4937238;29;20020;-85
2022/04/24 03:14:54;;;;;;;11.48;7.97;;;;;;;;;;4936859;29;20020;-86
2022/04/24 03:17:19;;;;;;;11.35;8.00;;;;;;;;;;4919812;29;20020;-89
2022/04/24 03:19:45;;;;;;;11.70;8.43;;;;;;;;;;4919921;29;20151;-87
2022/04/24 03:22:10;;;;;;;12.70;8.27;;;;;;;;;;4936598;29;20028;-87
2022/04/24 03:24:35;;;;;;;12.70;8.10;;;;;;;;;;4936408;29;20485;-87
2022/04/24 03:27:00;;;;;;;12.65;8.35;;;;;;;;;;4922108;29;20499;-87
2022/04/24 03:29:26;;;;;;;11.52;8.48;;;;;;;;;;4919705;29;20468;-87
2022/04/24 03:31:51;;;;;;;14.85;8.75;;;;;;;;;;4936115;29;20054;-86
2022/04/24 03:34:17;;;;;;;14.65;8.18;;;;;;;;;;4936446;29;20475;-87
2022/04/24 03:36:42;;;;;;;14.50;8.60;;;;;;;;;;4936627;29;20015;-86
2022/04/24 03:39:08;;;;;;;12.57;7.90;;;;;;;;;;4935132;29;20550;-87
2022/04/24 03:41:33;;;;;;;13.60;8.55;;;;;;;;;;4936168;29;20461;-87
2022/04/24 03:43:58;;;;;;;13.13;7.82;;;;;;;;;;4919198;29;20028;-87
2022/04/24 03:46:23;;;;;;;14.52;8.50;;;;;;;;;;4937159;29;20046;-87
2022/04/24 03:48:48;;;;;;;14.27;9.07;;;;;;;;;;4936419;29;20391;-86
2022/04/24 03:51:14;;;;;;;14.52;9.15;;;;;;;;;;4935107;29;20110;-86
2022/04/24 03:53:39;;;;;;;15.18;8.00;;;;;;;;;;4919134;29;20020;-87
2022/04/24 03:56:04;;;;;;;12.95;8.40;;;;;;;;;;4935415;29;20151;-88
2022/04/24 03:58:29;;;;;;;15.93;8.50;;;;;;;;;;4936070;29;20067;-87
2022/04/24 04:00:55;;;;;;;14.68;9.02;;;;;;;;;;4936109;29;20455;-87
2022/04/24 04:03:20;;;;;;;13.93;9.07;;;;;;;;;;4936049;29;20027;-87
2022/04/24 04:05:46;;;;;;;19.83;9.27;;;;;;;;;;4936243;29;20027;-87
2022/04/24 04:08:11;;;;;;;13.05;8.85;;;;;;;;;;4919116;29;20027;-87
2022/04/24 04:10:36;;;;;;;14.05;8.27;;;;;;;;;;4935906;29;20023;-88
2022/04/24 04:13:04;;;;;;;13.95;8.93;;;;;;;;;;4934554;29;20054;-86
2022/04/24 04:15:29;;;;;;;14.38;8.57;;;;;;;;;;4925872;29;20023;-88
2022/04/24 04:17:55;;;;;;;12.25;8.63;;;;;;;;;;4936960;29;20031;-88
2022/04/24 04:20:20;;;;;;;12.60;8.63;;;;;;;;;;4935904;29;20039;-87
2022/04/24 04:22:48;;;;;;;13.63;8.88;;;;;;;;;;4935798;29;20103;-87
2022/04/24 04:25:13;;;;;;;18.73;9.75;;;;;;;;;;4933790;29;20057;-88
2022/04/24 04:27:38;;;;;;;13.60;7.82;;;;;;;;;;4935786;29;20047;-88
2022/04/24 04:30:03;;;;;;;11.98;8.20;;;;;;;;;;4934659;29;20028;-88
2022/04/24 04:32:28;;;;;;;14.02;8.18;;;;;;;;;;4935490;29;20028;-88
2022/04/24 04:34:54;;;;;;;16.13;8.73;;;;;;;;;;4935171;29;20114;-88
2022/04/24 04:37:19;;;;;;;13.02;8.60;;;;;;;;;;4935620;29;20250;-88
2022/04/24 04:39:44;;;;;;;14.23;8.48;;;;;;;;;;4935731;29;20023;-88
2022/04/24 04:42:10;;;;;;;13.70;8.45;;;;;;;;;;4935938;29;20526;-88
2022/04/24 04:44:35;;;;;;;19.02;9.07;;;;;;;;;;4933653;29;20046;-88
2022/04/24 04:47:00;;;;;;;11.40;7.72;;;;;;;;;;4935078;29;20030;-88
2022/04/24 04:49:25;;;;;;;15.15;9.23;;;;;;;;;;4935482;29;20475;-88
2022/04/24 04:51:52;;;;;;;14.13;8.43;;;;;;;;;;4918411;29;20029;-88
2022/04/24 04:54:17;;;;;;;14.73;8.55;;;;;;;;;;4936188;29;20055;-87
2022/04/24 04:56:43;;;;;;;13.40;8.18;;;;;;;;;;4935258;29;20446;-88
2022/04/24 04:59:08;;;;;;;14.55;8.07;;;;;;;;;;4918185;29;20027;-88
2022/04/24 05:01:33;;;;;;;12.13;7.97;;;;;;;;;;4917044;29;20070;-87
2022/04/24 05:03:58;;;;;;;12.68;7.72;;;;;;;;;;4934965;29;20038;-88
2022/04/24 05:06:24;;;;;;;14.13;8.98;;;;;;;;;;4927908;29;20023;-87
2022/04/24 05:08:49;;;;;;;14.50;8.07;;;;;;;;;;4934872;29;20016;-87
2022/04/24 05:11:14;;;;;;;14.43;8.40;;;;;;;;;;4917894;29;20012;-87
2022/04/24 05:13:39;;;;;;;13.75;7.85;;;;;;;;;;4934812;29;20090;-86
2022/04/24 05:16:05;;;;;;;13.30;9.07;;;;;;;;;;4934861;29;20390;-88
2022/04/24 05:18:30;;;;;;;15.52;8.43;;;;;;;;;;4933905;29;20059;-87
2022/04/24 05:20:57;;;;;;;15.02;8.45;;;;;;;;;;4934735;29;20443;-88
2022/04/24 05:23:22;;;;;;;14.35;8.32;;;;;;;;;;4935357;29;20099;-88
2022/04/24 05:25:48;;;;;;;11.68;8.57;;;;;;;;;;4934742;29;20090;-89
2022/04/24 05:28:13;;;;;;;18.48;8.88;;;;;;;;;;4935688;29;20015;-89
2022/04/24 05:30:39;;;;;;;14.63;8.57;;;;;;;;;;4934856;29;20019;-86
2022/04/24 05:33:04;;;;;;;12.98;8.25;;;;;;;;;;4934842;29;20028;-89
2022/04/24 05:35:29;;;;;;;15.05;8.57;;;;;;;;;;4933632;29;20023;-87
2022/04/24 05:37:54;;;;;;;13.45;8.27;;;;;;;;;;4935102;29;20442;-88
2022/04/24 05:40:20;;;;;;;12.43;8.07;;;;;;;;;;4934792;29;20024;-88
2022/04/24 05:42:49;;;;;;;13.68;8.13;;;;;;;;;;4917742;29;20038;-89
2022/04/24 05:45:18;;;;;;;12.18;8.05;;;;;;;;;;4917531;29;20086;-89
2022/04/24 05:47:43;;;;;;;11.93;8.10;;;;;;;;;;4934846;29;20046;-88
2022/04/24 05:50:08;;;;;;;11.95;7.93;;;;;;;;;;4935505;29;20499;-89
2022/04/24 05:52:33;;;;;;;13.70;8.25;;;;;;;;;;4916020;29;20012;-89
2022/04/24 05:54:59;;;;;;;15.38;9.00;;;;;;;;;;4923245;29;20035;-88
2022/04/24 05:57:24;;;;;;;12.82;8.50;;;;;;;;;;4938695;29;20063;-88
2022/04/24 05:59:49;;;;;;;13.02;8.48;;;;;;;;;;4939167;29;20032;-88
2022/04/24 06:02:14;;;;;;;14.95;8.80;;;;;;;;;;4937724;29;20024;-88
2022/04/24 06:04:39;;;;;;;13.68;9.30;;;;;;;;;;4932329;29;20547;-88
2022/04/24 06:07:05;;;;;;;12.02;7.90;;;;;;;;;;4938359;29;20058;-88
2022/04/24 06:09:30;;;;;;;14.80;8.65;;;;;;;;;;4936883;29;20400;-88
2022/04/24 06:11:58;;;;;;;13.73;8.15;;;;;;;;;;4926264;29;20020;-86
2022/04/24 06:14:24;;;;;;;13.00;8.30;;;;;;;;;;4937946;29;20107;-88
2022/04/24 06:16:49;;;;;;;12.75;8.38;;;;;;;;;;4938164;29;20039;-88
2022/04/24 06:19:14;;;;;;;13.52;8.63;;;;;;;;;;4938186;29;20023;-88
2022/04/24 06:21:39;;;;;;;12.73;8.75;;;;;;;;;;4938295;29;20051;-88
2022/04/24 06:24:04;;;;;;;13.20;7.82;;;;;;;;;;4938075;29;20028;-88
2022/04/24 06:26:31;;;;;;;12.57;8.07;;;;;;;;;;4937680;29;20050;-88
2022/04/24 06:28:56;;;;;;;13.07;8.20;;;;;;;;;;4933483;29;20110;-88
2022/04/24 06:31:21;;;;;;;11.55;8.65;;;;;;;;;;4939622;29;20119;-87
2022/04/24 06:33:46;;;;;;;14.63;8.75;;;;;;;;;;4939175;29;20106;-88
2022/04/24 06:36:11;;;;;;;15.48;9.57;;;;;;;;;;4926374;29;20035;-87
2022/04/24 06:38:37;;;;;;;12.98;7.90;;;;;;;;;;4937903;29;20016;-88
2022/04/24 06:41:02;;;;;;;16.17;9.05;;;;;;;;;;4920012;29;20450;-87
2022/04/24 06:43:27;;;;;;;13.70;8.43;;;;;;;;;;4939161;29;20027;-88
2022/04/24 06:45:52;;;;;;;13.15;8.98;;;;;;;;;;4938495;29;20049;-86
2022/04/24 06:48:18;;;;;;;13.52;8.40;;;;;;;;;;4938295;29;20016;-86
2022/04/24 06:50:44;;;;;;;13.73;8.82;;;;;;;;;;4932187;29;20095;-87
2022/04/24 06:53:13;;;;;;;10.60;7.88;;;;;;;;;;4937547;29;20020;-86
2022/04/24 06:55:40;;;;;;;15.38;9.65;;;;;;;;;;4937865;29;20028;-88
2022/04/24 06:58:05;;;;;;;16.33;9.45;;;;;;;;;;4920094;29;20047;-86
2022/04/24 07:00:32;;;;;;;14.05;8.80;;;;;;;;;;4935826;29;20019;-87
2022/04/24 07:02:57;;;;;;;11.82;8.45;;;;;;;;;;4937820;29;20015;-87
2022/04/24 07:05:23;;;;;;;15.88;9.48;;;;;;;;;;4936682;29;20019;-88
2022/04/24 07:07:48;;;;;;;13.45;9.30;;;;;;;;;;4937464;29;20047;-86
2022/04/24 07:10:14;;;;;;;15.75;9.38;;;;;;;;;;4937525;29;20024;-87
2022/04/24 07:12:46;;;;;;;13.85;9.52;;;;;;;;;;4937303;29;20082;-87
2022/04/24 07:15:11;;;;;;;16.10;9.07;;;;;;;;;;4923805;29;20027;-86
2022/04/24 07:17:36;;;;;;;19.55;10.35;;;;;;;;;;4927864;29;20140;-88
2022/04/24 07:20:01;;;;;;;14.05;9.50;;;;;;;;;;4919883;29;20364;-88
2022/04/24 07:22:26;;;;;;;14.73;9.43;;;;;;;;;;4935764;29;20055;-88
2022/04/24 07:24:51;;;;;;;12.90;9.45;;;;;;;;;;4920373;29;20388;-87
2022/04/24 07:27:17;;;;;;;16.57;9.30;;;;;;;;;;4936817;29;20012;-87
2022/04/24 07:29:42;;;;;;;15.48;9.80;;;;;;;;;;4938283;29;20256;-87
2022/04/24 07:32:07;;;;;;;14.02;9.40;;;;;;;;;;4936109;29;20098;-86
2022/04/24 07:34:33;;;;;;;23.38;11.82;;;;;;;;;;4925340;29;20495;-86
2022/04/24 07:36:59;;;;;;;14.45;9.43;;;;;;;;;;4936898;29;20063;-86
2022/04/24 07:39:24;;;;;;;12.93;9.13;;;;;;;;;;4937844;29;20545;-86
2022/04/24 07:41:49;;;;;;;15.27;9.20;;;;;;;;;;4937292;29;20035;-86
2022/04/24 07:44:14;;;;;;;15.32;9.32;;;;;;;;;;4936457;29;20119;-86
2022/04/24 07:46:39;;;;;;;12.50;8.30;;;;;;;;;;4936268;29;20015;-86
2022/04/24 07:49:05;;;;;;;17.60;9.23;;;;;;;;;;4947865;28;20058;-85
2022/04/24 07:51:30;;;;;;;14.15;9.85;;;;;;;;;;4919359;29;20039;-86
2022/04/24 07:53:55;;;;;;;17.23;9.33;;;;;;;;;;4936392;29;20028;-86
2022/04/24 07:56:20;;;;;;;13.70;8.83;;;;;;;;;;4936688;29;20373;-86
2022/04/24 07:58:45;;;;;;;13.10;8.65;;;;;;;;;;4930490;29;20277;-86
2022/04/24 08:01:11;;;;;;;12.27;8.90;;;;;;;;;;4919442;29;20027;-85
2022/04/24 08:03:36;;;;;;;13.45;8.77;;;;;;;;;;4934544;29;20067;-86
2022/04/24 08:06:01;;;;;;;14.00;9.65;;;;;;;;;;4935748;29;20019;-86
2022/04/24 08:08:27;;;;;;;13.65;8.48;;;;;;;;;;4934620;29;20360;-85
2022/04/24 08:10:53;;;;;;;15.60;8.85;;;;;;;;;;4918741;29;20015;-85
2022/04/24 08:13:20;;;;;;;12.38;8.05;;;;;;;;;;4919869;29;20048;-85
2022/04/24 08:15:45;;;;;;;44.10;32.38;;;;;;;;;;4921964;29;20056;-86
2022/04/24 08:18:11;;;;;;;12.20;8.20;;;;;;;;;;4934525;29;20024;-85
2022/04/24 08:20:37;;;;;;;14.63;8.70;;;;;;;;;;4934621;29;20511;-83
2022/04/24 08:23:03;;;;;;;11.25;7.82;;;;;;;;;;4926033;29;20055;-85
2022/04/24 08:25:28;;;;;;;11.65;7.55;;;;;;;;;;4935168;29;20015;-86
2022/04/24 08:27:54;;;;;;;11.32;7.30;;;;;;;;;;4923859;29;20022;-86
2022/04/24 08:30:20;;;;;;;16.58;7.38;;;;;;;;;;4919070;29;20087;-86
2022/04/24 08:32:46;;;;;;;11.40;7.22;;;;;;;;;;4918426;29;20030;-86
2022/04/24 08:35:12;;;;;;;12.23;6.85;;;;;;;;;;4935787;29;20035;-86
2022/04/24 08:37:38;;;;;;;13.68;7.50;;;;;;;;;;4934953;29;20027;-85
2022/04/24 08:40:04;;;;;;;11.88;6.65;;;;;;;;;;4935611;29;20467;-85
2022/04/24 08:42:30;;;;;;;12.05;6.78;;;;;;;;;;4935994;29;20042;-84
2022/04/24 08:44:56;;;;;;;11.30;6.85;;;;;;;;;;4921497;29;20024;-85
2022/04/24 08:47:21;;;;;;;9.70;5.90;;;;;;;;;;4935201;29;20027;-84
2022/04/24 08:49:47;;;;;;;12.68;6.93;;;;;;;;;;4935394;29;20479;-85
2022/04/24 08:52:14;;;;;;;10.85;6.45;;;;;;;;;;4917903;29;20016;-83
2022/04/24 08:54:41;;;;;;;9.57;6.20;;;;;;;;;;4933251;29;20047;-82
2022/04/24 08:57:06;;;;;;;11.25;6.30;;;;;;;;;;4946567;23;20163;-85
2022/04/24 08:59:32;;;;;;;9.90;5.80;;;;;;;;;;4917836;29;20106;-86
2022/04/24 09:01:58;;;;;;;9.10;5.95;;;;;;;;;;4918222;29;20039;-84
2022/04/24 09:04:24;;;;;;;12.77;6.30;;;;;;;;;;4935088;29;20032;-86
2022/04/24 09:06:59;;;;;;;10.77;6.00;;;;;;;;;;4918274;29;20070;-85
2022/04/24 09:09:25;;;;;;;10.35;6.20;;;;;;;;;;4930113;29;20023;-87
2022/04/24 09:11:50;;;;;;;9.85;6.43;;;;;;;;;;4935208;29;20015;-86
2022/04/24 09:14:18;;;;;;;11.57;6.35;;;;;;;;;;4918214;29;20020;-86
2022/04/24 09:16:47;;;;;;;14.05;6.15;;;;;;;;;;4935275;29;20027;-85
2022/04/24 09:19:16;;;;;;;11.10;6.90;;;;;;;;;;4935164;29;20106;-87
2022/04/24 09:21:42;;;;;;;10.73;6.25;;;;;;;;;;4921417;29;20361;-87
2022/04/24 09:24:07;;;;;;;8.20;5.95;;;;;;;;;;4917976;29;20028;-86
2022/04/24 09:26:33;;;;;;;10.35;6.72;;;;;;;;;;4935717;29;20023;-85
2022/04/24 09:28:59;;;;;;;11.18;6.47;;;;;;;;;;4935043;29;20019;-87
2022/04/24 09:31:30;;;;;;;10.73;6.75;;;;;;;;;;4935286;29;20020;-86
2022/04/24 09:33:55;;;;;;;10.50;6.00;;;;;;;;;;4935822;29;20020;-86
2022/04/24 09:36:24;;;;;;;10.57;6.15;;;;;;;;;;4920577;29;20083;-86
2022/04/24 09:38:49;;;;;;;10.10;6.40;;;;;;;;;;4940594;29;20024;-85
2022/04/24 09:41:15;;;;;;;10.63;6.00;;;;;;;;;;4947819;29;20042;-86
2022/04/24 09:43:41;;;;;;;8.65;5.70;;;;;;;;;;4933644;29;20016;-86
2022/04/24 09:46:06;;;;;;;14.25;9.30;;;;;;;;;;4934017;29;20019;-87
2022/04/24 09:48:31;;;;;;;11.80;6.25;;;;;;;;;;4934218;29;20016;-86
2022/04/24 09:50:58;;;;;;;10.65;5.90;;;;;;;;;;4917419;29;20023;-85
2022/04/24 09:53:23;;;;;;;19.77;7.43;;;;;;;;;;4934197;29;20106;-86
2022/04/24 09:55:51;;;;;;;13.68;6.80;;;;;;;;;;4933196;29;20063;-86
2022/04/24 09:58:17;;;;;;;10.43;5.88;;;;;;;;;;4934062;29;20024;-85
2022/04/24 10:00:44;;;;;;;9.05;5.00;;;;;;;;;;4934164;29;20111;-84
2022/04/24 10:03:09;;;;;;;12.32;5.53;;;;;;;;;;4917774;29;20023;-86
2022/04/24 10:05:38;;;;;;;8.85;5.40;;;;;;;;;;4933809;29;20168;-85
2022/04/24 10:08:05;;;;;;;9.25;5.22;;;;;;;;;;4933894;29;20064;-85
2022/04/24 10:10:31;;;;;;;10.17;4.83;;;;;;;;;;4933727;29;20024;-86
2022/04/24 10:12:59;;;;;;;8.90;4.82;;;;;;;;;;4933427;29;20027;-85
2022/04/24 10:15:25;;;;;;;10.38;5.10;;;;;;;;;;4934761;29;20563;-85
2022/04/24 10:18:16;;;;;;;7.63;5.05;;;;;;;;;;4933166;29;20035;-85
2022/04/24 10:20:46;;;;;;;8.90;5.07;;;;;;;;;;4935006;29;20047;-87
2022/04/24 10:23:12;;;;;;;8.45;4.35;;;;;;;;;;4918049;29;20035;-85
2022/04/24 10:25:40;;;;;;;8.77;4.25;;;;;;;;;;4921045;29;20474;-84
2022/04/24 10:28:18;;;;;;;9.50;4.90;;;;;;;;;;4917194;29;20024;-86
2022/04/24 10:30:57;;;;;;;11.40;4.68;;;;;;;;;;4921060;29;20031;-85
2022/04/24 10:33:23;;;;;;;10.45;4.95;;;;;;;;;;4919811;29;20082;-86
2022/04/24 10:35:49;;;;;;;9.88;5.03;;;;;;;;;;4922208;29;20076;-86
2022/04/24 10:38:14;;;;;;;6.55;4.22;;;;;;;;;;4934730;29;20094;-84
2022/04/24 10:40:40;;;;;;;10.40;4.80;;;;;;;;;;4920666;29;20475;-85
2022/04/24 10:43:10;;;;;;;6.85;4.78;;;;;;;;;;4939906;29;20028;-84
2022/04/24 10:45:46;;;;;;;9.48;4.57;;;;;;;;;;4924149;29;20395;-85
2022/04/24 10:48:15;;;;;;;5.88;4.22;;;;;;;;;;4925059;29;20020;-84
2022/04/24 10:50:50;;;;;;;6.30;4.40;;;;;;;;;;4944275;29;20020;-86
2022/04/24 10:53:16;;;;;;;8.57;4.65;;;;;;;;;;4938617;29;20088;-85
2022/04/24 10:55:42;;;;;;;7.88;5.05;;;;;;;;;;4930430;29;20037;-84
2022/04/24 10:58:09;;;;;;;9.10;5.05;;;;;;;;;;4948492;29;20110;-84
2022/04/24 11:00:35;;;;;;;7.22;4.70;;;;;;;;;;4946464;29;20429;-86
2022/04/24 11:03:16;;;;;;;9.85;4.20;;;;;;;;;;4943462;29;20075;-83
2022/04/24 11:05:46;;;;;;;9.55;4.55;;;;;;;;;;4935507;29;20039;-86
2022/04/24 11:08:21;;;;;;;10.00;4.65;;;;;;;;;;4949747;29;20020;-86
2022/04/24 11:10:49;;;;;;;12.00;4.60;;;;;;;;;;4940656;29;20020;-86
2022/04/24 11:13:19;;;;;;;8.35;4.57;;;;;;;;;;4919329;29;20024;-87
2022/04/24 11:15:47;;;;;;;13.55;4.53;;;;;;;;;;4936854;29;20027;-86
2022/04/24 11:18:17;;;;;;;9.73;4.55;;;;;;;;;;4926854;29;20110;-86
2022/04/24 11:20:43;;;;;;;10.18;4.70;;;;;;;;;;4918141;29;20079;-88
2022/04/24 11:23:08;;;;;;;8.32;4.45;;;;;;;;;;4930328;29;20047;-88
2022/04/24 11:25:38;;;;;;;7.25;4.50;;;;;;;;;;4935088;29;20489;-86
2022/04/24 11:28:03;;;;;;;13.73;4.88;;;;;;;;;;4947068;29;20042;-85
2022/04/24 11:30:33;;;;;;;9.93;4.80;;;;;;;;;;4948821;29;20023;-87
2022/04/24 11:33:08;;;;;;;8.30;5.18;;;;;;;;;;4929696;29;20451;-86
2022/04/24 11:35:37;;;;;;;17.83;5.70;;;;;;;;;;4946857;29;20052;-87
2022/04/24 11:38:03;;;;;;;7.82;4.70;;;;;;;;;;4940288;29;20081;-87
2022/04/24 11:40:29;;;;;;;6.68;4.28;;;;;;;;;;4938801;29;20479;-87
2022/04/24 11:43:04;;;;;;;7.43;4.20;;;;;;;;;;4936529;29;20024;-86
2022/04/24 11:51:02;;;;;;;8.43;4.40;;;;;;;;;;4935321;29;20043;-87
2022/04/24 11:53:28;;;;;;;8.10;4.30;;;;;;;;;;4935654;29;20016;-86
2022/04/24 11:56:02;;;;;;;7.30;3.80;;;;;;;;;;4935653;29;20554;-86
2022/04/24 11:58:35;;;;;;;9.32;4.10;;;;;;;;;;4936725;29;20107;-87
2022/04/24 12:01:02;;;;;;;6.43;3.85;;;;;;;;;;4936080;29;20141;-86
2022/04/24 12:03:28;;;;;;;6.40;4.03;;;;;;;;;;4935775;29;20026;-86
2022/04/24 12:05:58;;;;;;;8.98;4.15;;;;;;;;;;4918596;29;20019;-86
2022/04/24 12:08:24;;;;;;;9.27;4.32;;;;;;;;;;4935118;29;20020;-86
2022/04/24 12:10:49;;;;;;;8.02;3.58;;;;;;;;;;4936383;29;20407;-86
2022/04/24 12:13:21;;;;;;;8.13;3.53;;;;;;;;;;4935760;29;20544;-87
2022/04/24 12:15:50;;;;;;;8.85;3.85;;;;;;;;;;4935737;29;20281;-85
2022/04/24 12:18:19;;;;;;;7.30;3.65;;;;;;;;;;4935773;29;20023;-86
2022/04/24 12:20:45;;;;;;;8.70;4.20;;;;;;;;;;4935704;29;20058;-88
2022/04/24 12:23:11;;;;;;;5.75;3.35;;;;;;;;;;4935350;29;20047;-86
2022/04/24 12:25:45;;;;;;;12.50;3.75;;;;;;;;;;4935142;29;20436;-86
2022/04/24 12:28:10;;;;;;;9.93;3.97;;;;;;;;;;4920516;29;20469;-86
2022/04/24 12:30:36;;;;;;;11.35;4.50;;;;;;;;;;4935228;29;20055;-85
2022/04/24 12:33:05;;;;;;;9.18;4.20;;;;;;;;;;4937638;29;20015;-86
2022/04/24 12:35:34;;;;;;;5.95;3.30;;;;;;;;;;4918527;29;20064;-86
2022/04/24 12:38:12;;;;;;;7.72;3.90;;;;;;;;;;4923256;29;20098;-87
2022/04/24 12:40:38;;;;;;;8.07;4.25;;;;;;;;;;4935183;29;20100;-86
2022/04/24 12:43:03;;;;;;;8.25;3.22;;;;;;;;;;4933650;29;20102;-85
2022/04/24 12:45:28;;;;;;;8.30;4.38;;;;;;;;;;4934635;29;20016;-84
2022/04/24 12:47:53;;;;;;;8.10;3.90;;;;;;;;;;4934472;29;20480;-86
2022/04/24 12:50:19;;;;;;;10.30;3.75;;;;;;;;;;4934801;29;20446;-86
2022/04/24 12:52:44;;;;;;;12.40;4.30;;;;;;;;;;4935433;29;20016;-86
2022/04/24 12:55:10;;;;;;;9.27;4.50;;;;;;;;;;4934804;29;20558;-85
2022/04/24 12:57:36;;;;;;;8.93;5.05;;;;;;;;;;4934978;29;20104;-85
2022/04/24 13:00:05;;;;;;;10.63;5.00;;;;;;;;;;4933691;29;20103;-84
2022/04/24 13:02:30;;;;;;;10.32;4.75;;;;;;;;;;4934698;29;20026;-86
2022/04/24 13:04:56;;;;;;;12.13;5.72;;;;;;;;;;4934079;29;20027;-85
2022/04/24 13:07:22;;;;;;;8.95;5.80;;;;;;;;;;4934797;29;20022;-86
2022/04/24 13:09:47;;;;;;;8.75;5.30;;;;;;;;;;4918129;29;20020;-87
2022/04/24 13:12:13;;;;;;;9.98;4.85;;;;;;;;;;4935102;29;20030;-86
2022/04/24 13:14:38;;;;;;;9.57;5.40;;;;;;;;;;4933942;29;20062;-86
2022/04/24 13:19:47;;;;;;;7.95;5.22;;;;;;;;;;4935172;29;20498;-86
2022/04/24 13:22:13;;;;;;;8.45;5.07;;;;;;;;;;4919252;29;20024;-85
2022/04/24 13:24:39;;;;;;;11.48;4.57;;;;;;;;;;4917491;29;20514;-86
2022/04/24 13:27:04;;;;;;;9.20;4.50;;;;;;;;;;4934258;29;20467;-86
2022/04/24 13:29:30;;;;;;;10.02;5.18;;;;;;;;;;4918833;29;20086;-84
2022/04/24 13:31:55;;;;;;;7.05;4.22;;;;;;;;;;4932998;29;20030;-86
2022/04/24 13:34:20;;;;;;;7.15;3.92;;;;;;;;;;4933797;29;20051;-86
2022/04/24 13:36:46;;;;;;;7.40;3.72;;;;;;;;;;4934250;29;20206;-85
2022/04/24 13:39:14;;;;;;;8.45;4.25;;;;;;;;;;4934466;29;20023;-87
2022/04/24 13:41:39;;;;;;;6.72;3.85;;;;;;;;;;4934913;29;20102;-86
2022/04/24 13:44:05;;;;;;;8.05;4.47;;;;;;;;;;4935202;29;20132;-85
2022/04/24 13:46:31;;;;;;;9.73;4.20;;;;;;;;;;4935457;29;20086;-86
2022/04/24 13:48:56;;;;;;;6.70;3.83;;;;;;;;;;4919079;29;20015;-87
2022/04/24 13:51:22;;;;;;;6.03;4.07;;;;;;;;;;4935013;29;20039;-86
2022/04/24 13:53:47;;;;;;;6.10;4.25;;;;;;;;;;4934899;29;20024;-85
2022/04/24 13:56:13;;;;;;;8.80;4.25;;;;;;;;;;4934932;29;20094;-86
2022/04/24 13:58:38;;;;;;;8.80;4.18;;;;;;;;;;4934566;29;20031;-85
2022/04/24 14:01:04;;;;;;;6.70;4.13;;;;;;;;;;4934194;29;20108;-85
2022/04/24 14:03:32;;;;;;;8.85;3.97;;;;;;;;;;4917217;29;20022;-88
2022/04/24 14:05:57;;;;;;;8.15;3.90;;;;;;;;;;4933084;29;20024;-87
2022/04/24 14:08:26;;;;;;;6.07;4.30;;;;;;;;;;4920604;29;20078;-86
2022/04/24 14:10:51;;;;;;;8.35;4.28;;;;;;;;;;4934456;29;20020;-87
2022/04/24 14:13:17;;;;;;;8.73;4.18;;;;;;;;;;4932475;29;20074;-87
2022/04/24 14:15:42;;;;;;;6.32;4.18;;;;;;;;;;4923450;29;20052;-85
2022/04/24 14:18:07;;;;;;;6.07;4.10;;;;;;;;;;4918011;29;20184;-85
2022/04/24 14:20:32;;;;;;;9.38;4.10;;;;;;;;;;4932395;29;20453;-86
2022/04/24 14:22:58;;;;;;;7.20;4.10;;;;;;;;;;4917561;29;20028;-85
2022/04/24 14:25:24;;;;;;;8.57;4.50;;;;;;;;;;4937892;29;20038;-87
2022/04/24 14:27:49;;;;;;;8.07;4.65;;;;;;;;;;4938122;29;20024;-87
2022/04/24 14:30:14;;;;;;;7.78;4.63;;;;;;;;;;4921569;29;20510;-86
2022/04/24 14:32:40;;;;;;;7.53;4.50;;;;;;;;;;4938773;29;20020;-86
2022/04/24 14:35:06;;;;;;;8.02;4.78;;;;;;;;;;4939055;29;20020;-87